Terminal Aerodrome Forecast
Issued by NWS Green Bay, WI

Home | Current Version | Previous Version | Text Only | Print | Product List | Glossary Off
Versions: 1 2 3 4 5 6 7 8 9 10 11 12 13 14 15 16

000
FTUS43 KGRB 011735 AAB
TAFGRB
TAF AMD
KGRB 011735Z 0118/0218 27010G16KT P6SM SCT020 OVC090
      TEMPO 0118/0121 BKN020
     FM012300 29007KT P6SM BKN025
     FM021600 30007KT P6SM BKN028=

USA.gov is the U.S. government's official web portal to all federal, state and local government web resources and services.